createdAt,value
2019-03-01T00:03:36.471Z,80.10
2019-03-01T00:09:37.965Z,80.65
2019-03-01T00:15:27.520Z,80.81
2019-03-01T00:20:54.347Z,80.29
2019-03-01T00:26:29.922Z,81.50
2019-03-01T00:31:44.082Z,81.01
2019-03-01T00:37:35.819Z,80.62
2019-03-01T00:43:31.732Z,81.40
2019-03-01T00:48:33.608Z,81.65
2019-03-01T00:53:35.171Z,82.26
2019-03-01T00:58:36.804Z,82.37
2019-03-01T01:03:38.782Z,82.30
2019-03-01T01:08:40.357Z,83.07
2019-03-01T01:13:42.141Z,83.46
2019-03-01T01:18:43.724Z,84.17
2019-03-01T01:23:45.293Z,83.84
2019-03-01T01:28:47.257Z,84.00
2019-03-01T01:33:48.822Z,83.93
2019-03-01T01:38:50.408Z,83.95
2019-03-01T01:43:51.984Z,83.99
2019-03-01T01:48:53.546Z,84.50
2019-03-01T01:53:55.130Z,85.21
2019-03-01T01:58:57.092Z,85.24
2019-03-01T02:03:58.632Z,83.80
2019-03-01T02:09:00.211Z,84.79
2019-03-01T02:14:01.850Z,84.58
2019-03-01T02:19:03.399Z,83.21
2019-03-01T02:24:04.970Z,83.47
2019-03-01T02:29:06.514Z,83.46
2019-03-01T02:34:08.114Z,83.71
2019-03-01T02:39:09.669Z,84.02
2019-03-01T02:44:11.327Z,84.17
2019-03-01T02:49:13.280Z,84.21
2019-03-01T02:54:15.150Z,84.33
2019-03-01T02:59:16.707Z,84.24
2019-03-01T03:04:18.418Z,84.50
2019-03-01T03:09:19.965Z,84.46
2019-03-01T03:14:21.974Z,84.70
2019-03-01T03:19:23.512Z,84.68
2019-03-01T03:24:25.089Z,84.74
2019-03-01T03:29:27.073Z,84.95
2019-03-01T03:34:28.622Z,84.71
2019-03-01T03:39:30.257Z,84.83
2019-03-01T03:44:31.815Z,84.70
2019-03-01T03:49:33.378Z,84.71
2019-03-01T03:54:34.929Z,84.99
2019-03-01T03:59:36.492Z,85.24
2019-03-01T04:04:38.065Z,85.31
2019-03-01T04:09:39.660Z,85.51
2019-03-01T04:14:41.685Z,85.69
2019-03-01T04:19:43.617Z,85.87
2019-03-01T04:24:45.254Z,85.76
2019-03-01T04:29:46.874Z,85.92
2019-03-01T04:34:48.492Z,86.08
2019-03-01T04:39:50.061Z,86.25
2019-03-01T04:44:51.592Z,85.62
2019-03-01T04:49:53.136Z,85.73
2019-03-01T04:54:54.649Z,85.49
2019-03-01T04:59:56.237Z,85.48
2019-03-01T05:04:57.875Z,85.39
2019-03-01T05:09:59.393Z,85.42
2019-03-01T05:15:01.000Z,85.62
2019-03-01T05:20:02.588Z,85.53
2019-03-01T05:25:04.255Z,86.00
2019-03-01T05:30:06.882Z,86.10
2019-03-01T05:35:08.419Z,86.15
2019-03-01T05:40:10.725Z,86.33
2019-03-01T05:45:14.876Z,86.55
2019-03-01T05:50:17.572Z,86.93
2019-03-01T05:55:19.102Z,86.90
2019-03-01T06:00:20.741Z,87.09
2019-03-01T06:05:29.300Z,86.99
2019-03-01T06:11:19.089Z,86.98
2019-03-01T06:17:03.928Z,87.13
2019-03-01T06:22:27.113Z,87.04
2019-03-01T06:28:28.651Z,86.70
2019-03-01T06:33:53.016Z,86.67
2019-03-01T06:39:32.236Z,86.93
2019-03-01T06:45:18.431Z,86.83
2019-03-01T06:50:19.965Z,86.93
2019-03-01T06:55:42.212Z,86.61
2019-03-01T07:00:50.226Z,86.71
2019-03-01T07:05:47.294Z,86.71
2019-03-01T07:10:48.849Z,86.50
2019-03-01T07:15:50.494Z,86.59
2019-03-01T07:20:52.096Z,86.27
2019-03-01T07:25:54.864Z,86.38
2019-03-01T07:30:56.738Z,86.10
2019-03-01T07:35:58.344Z,86.53
2019-03-01T07:40:59.890Z,86.87
2019-03-01T07:46:01.514Z,87.41
2019-03-01T07:51:03.106Z,87.86
2019-03-01T07:56:05.220Z,88.07
2019-03-01T08:01:07.106Z,88.15
2019-03-01T08:06:13.136Z,88.29
2019-03-01T08:11:12.533Z,86.90
2019-03-01T08:16:16.620Z,87.08
2019-03-01T08:21:18.189Z,87.06
2019-03-01T08:26:19.800Z,86.84
2019-03-01T08:31:22.268Z,86.92
2019-03-01T08:36:23.987Z,87.09
2019-03-01T08:41:26.316Z,87.19
2019-03-01T08:46:28.031Z,87.26
2019-03-01T08:51:30.506Z,87.77
2019-03-01T08:56:32.485Z,87.43
2019-03-01T09:01:34.066Z,86.99
2019-03-01T09:06:35.720Z,86.67
2019-03-01T09:11:37.290Z,86.01
2019-03-01T09:16:40.955Z,85.83
2019-03-01T09:21:44.632Z,85.41
2019-03-01T09:26:45.886Z,85.16
2019-03-01T09:31:47.455Z,85.82
2019-03-01T09:36:51.529Z,86.06
2019-03-01T09:42:02.721Z,85.77
2019-03-01T09:46:58.457Z,85.95
2019-03-01T09:52:00.225Z,85.57
2019-03-01T09:57:01.853Z,84.89
2019-03-01T10:02:03.736Z,84.20
2019-03-01T10:07:05.724Z,83.78
2019-03-01T10:12:07.623Z,83.20
2019-03-01T10:17:09.529Z,83.32
2019-03-01T10:22:11.834Z,82.72
2019-03-01T10:27:13.374Z,83.01
2019-03-01T10:32:15.374Z,82.32
2019-03-01T10:37:16.938Z,81.54
2019-03-01T10:42:18.602Z,81.04
2019-03-01T10:47:20.129Z,81.37
2019-03-01T10:52:21.736Z,78.20
2019-03-01T10:57:23.332Z,79.68
2019-03-01T11:02:24.891Z,77.46
2019-03-01T11:07:26.527Z,73.02
2019-03-01T11:12:28.103Z,74.31
2019-03-01T11:17:29.670Z,74.97
2019-03-01T11:22:31.232Z,75.53
2019-03-01T11:27:33.144Z,75.17
2019-03-01T11:32:34.731Z,73.00
2019-03-01T11:37:36.309Z,70.68
2019-03-01T11:42:38.303Z,70.71
2019-03-01T11:47:39.964Z,70.42
2019-03-01T11:52:41.600Z,69.93
2019-03-01T11:57:43.227Z,72.09
2019-03-01T12:02:45.285Z,68.26
2019-03-01T12:07:46.849Z,67.14
2019-03-01T12:12:48.534Z,66.33
2019-03-01T12:17:50.627Z,68.19
2019-03-01T12:22:52.176Z,65.79
2019-03-01T12:27:53.773Z,65.38
2019-03-01T12:32:55.748Z,64.02
2019-03-01T12:37:57.661Z,64.00
2019-03-01T12:42:59.301Z,64.65
2019-03-01T12:48:00.874Z,65.60
2019-03-01T12:53:02.800Z,65.01
2019-03-01T12:58:04.333Z,65.46
2019-03-01T13:03:09.008Z,65.36
2019-03-01T13:08:12.533Z,65.09
2019-03-01T13:13:13.507Z,65.29
2019-03-01T13:18:16.663Z,65.93
2019-03-01T13:23:18.567Z,68.13
2019-03-01T13:28:20.193Z,67.32
2019-03-01T13:33:21.811Z,66.29
2019-03-01T13:38:23.435Z,67.06
2019-03-01T13:43:27.363Z,68.09
2019-03-01T13:48:28.511Z,64.67
2019-03-01T13:53:32.906Z,65.50
2019-03-01T13:58:33.578Z,65.33
2019-03-01T14:03:35.579Z,66.85
2019-03-01T14:08:39.723Z,66.35
2019-03-01T14:13:41.461Z,64.18
2019-03-01T14:18:43.029Z,64.72
2019-03-01T14:23:45.012Z,65.55
2019-03-01T14:28:46.544Z,65.65
2019-03-01T14:33:48.159Z,65.23
2019-03-01T14:38:50.169Z,65.32
2019-03-01T14:43:51.734Z,63.95
2019-03-01T14:48:53.343Z,63.79
2019-03-01T14:53:54.943Z,65.46
2019-03-01T14:59:04.144Z,64.87
2019-03-01T15:04:06.203Z,65.80
2019-03-01T15:09:08.191Z,66.94
2019-03-01T15:14:13.415Z,67.68
2019-03-01T15:19:13.661Z,66.70
2019-03-01T15:24:15.710Z,66.60
2019-03-01T15:29:17.268Z,66.28
2019-03-01T15:34:20.428Z,66.86
2019-03-01T15:39:22.395Z,67.12
2019-03-01T15:44:24.034Z,66.50
2019-03-01T15:49:25.632Z,66.33
2019-03-01T15:54:27.765Z,67.20
2019-03-01T15:59:29.396Z,68.16
2019-03-01T16:04:33.599Z,66.94
2019-03-01T16:09:35.621Z,66.34
2019-03-01T16:14:37.190Z,67.52
2019-03-01T16:19:38.940Z,66.72
2019-03-01T16:24:41.659Z,67.34
2019-03-01T16:29:44.357Z,68.03
2019-03-01T16:34:45.875Z,67.60
2019-03-01T16:39:48.231Z,68.06
2019-03-01T16:44:49.861Z,68.25
2019-03-01T16:49:51.534Z,68.09
2019-03-01T16:54:54.766Z,68.64
2019-03-01T16:59:56.819Z,69.06
2019-03-01T17:04:59.777Z,69.32
2019-03-01T17:10:02.781Z,69.46
2019-03-01T17:15:05.466Z,70.06
2019-03-01T17:20:08.187Z,70.29
2019-03-01T17:25:10.103Z,70.92
2019-03-01T17:30:17.761Z,71.08
2019-03-01T17:35:19.583Z,71.30
2019-03-01T17:40:21.172Z,71.58
2019-03-01T17:45:22.869Z,71.80
2019-03-01T17:50:24.603Z,71.94
2019-03-01T17:55:26.202Z,71.99
2019-03-01T18:00:27.844Z,71.86
2019-03-01T18:05:29.444Z,72.02
2019-03-01T18:10:32.062Z,72.20
2019-03-01T18:15:34.590Z,72.54
2019-03-01T18:20:37.683Z,72.76
2019-03-01T18:25:39.751Z,73.09
2019-03-01T18:30:41.836Z,73.41
2019-03-01T18:35:43.428Z,73.63
2019-03-01T18:40:44.999Z,73.71
2019-03-01T18:45:46.582Z,73.70
2019-03-01T18:50:48.155Z,73.74
2019-03-01T18:55:52.914Z,73.68
2019-03-01T19:00:53.344Z,73.42
2019-03-01T19:05:54.952Z,73.21
2019-03-01T19:10:59.719Z,72.89
2019-03-01T19:16:00.134Z,72.77
2019-03-01T19:21:02.231Z,72.46
2019-03-01T19:26:04.002Z,72.65
2019-03-01T19:31:05.632Z,72.30
2019-03-01T19:36:07.251Z,72.12
2019-03-01T19:41:09.712Z,72.53
2019-03-01T19:46:12.668Z,72.52
2019-03-01T19:51:14.905Z,72.34
2019-03-01T19:56:19.014Z,72.18
2019-03-01T20:01:20.390Z,72.29
2019-03-01T20:06:22.605Z,71.97
2019-03-01T20:11:26.746Z,72.01
2019-03-01T20:16:27.810Z,71.68
2019-03-01T20:21:30.039Z,72.13
2019-03-01T20:26:31.613Z,72.18
2019-03-01T20:31:33.355Z,71.45
2019-03-01T20:36:35.315Z,71.65
2019-03-01T20:41:40.150Z,71.22
2019-03-01T20:46:43.832Z,70.50
2019-03-01T20:51:44.921Z,70.35
2019-03-01T20:56:48.018Z,70.90
2019-03-01T21:01:50.546Z,71.23
2019-03-01T21:06:52.155Z,70.03
2019-03-01T21:11:53.778Z,70.57
2019-03-01T21:16:55.358Z,71.60
2019-03-01T21:21:57.245Z,72.27
2019-03-01T21:26:59.296Z,72.72
2019-03-01T21:32:00.891Z,73.22
2019-03-01T21:37:03.917Z,73.80
2019-03-01T21:42:06.618Z,73.73
2019-03-01T21:47:12.206Z,73.56
2019-03-01T21:52:11.933Z,73.53
2019-03-01T21:57:13.598Z,73.84
2019-03-01T22:02:21.223Z,74.08
2019-03-01T22:07:22.801Z,74.95
2019-03-01T22:12:29.535Z,74.55
2019-03-01T22:17:33.060Z,74.54
2019-03-01T22:22:37.532Z,74.56
2019-03-01T22:27:38.508Z,74.85
2019-03-01T22:32:42.359Z,74.73
2019-03-01T22:37:44.113Z,75.06
2019-03-01T22:42:49.560Z,75.36
2019-03-01T22:47:51.746Z,75.92
2019-03-01T22:52:53.349Z,76.25
2019-03-01T22:57:57.838Z,76.53
2019-03-01T23:02:59.769Z,76.87
2019-03-01T23:08:01.392Z,76.96
2019-03-01T23:13:03.011Z,77.20
2019-03-01T23:18:05.734Z,77.31
2019-03-01T23:23:08.226Z,77.43
2019-03-01T23:28:09.798Z,77.64
2019-03-01T23:33:11.470Z,77.92
2019-03-01T23:38:14.861Z,78.14
2019-03-01T23:43:16.523Z,78.24
2019-03-01T23:48:18.574Z,78.36
2019-03-01T23:53:20.137Z,78.41
2019-03-01T23:58:21.681Z,77.90
